sensor_id;sensor_type;location;lat;lon;timestamp;P1;durP1;ratioP1;P2;durP2;ratioP2
69213;SDS011;56325;47.030;18.518;2022-11-20T20:23:12;24.53;;;14.43;;
69213;SDS011;56325;47.030;18.518;2022-11-20T21:20:39;11.55;;;8.55;;
69213;SDS011;56325;47.030;18.518;2022-11-20T21:23:31;14.93;;;9.07;;
69213;SDS011;56325;47.030;18.518;2022-11-20T21:26:07;29.03;;;9.13;;
69213;SDS011;56325;47.030;18.518;2022-11-20T21:28:43;10.17;;;7.97;;
69213;SDS011;56325;47.030;18.518;2022-11-20T21:31:17;15.10;;;8.27;;
69213;SDS011;56325;47.030;18.518;2022-11-20T21:33:54;18.73;;;9.13;;
69213;SDS011;56325;47.030;18.518;2022-11-20T21:36:30;25.70;;;10.93;;
69213;SDS011;56325;47.030;18.518;2022-11-20T21:39:05;23.40;;;13.30;;
69213;SDS011;56325;47.030;18.518;2022-11-20T21:41:40;45.10;;;14.63;;
69213;SDS011;56325;47.030;18.518;2022-11-20T21:44:14;20.03;;;10.53;;
69213;SDS011;56325;47.030;18.518;2022-11-20T21:47:06;13.43;;;9.07;;
69213;SDS011;56325;47.030;18.518;2022-11-20T21:49:40;33.43;;;8.73;;
69213;SDS011;56325;47.030;18.518;2022-11-20T21:55:34;17.87;;;7.30;;
69213;SDS011;56325;47.030;18.518;2022-11-20T22:01:08;11.47;;;6.70;;
69213;SDS011;56325;47.030;18.518;2022-11-20T22:03:46;27.73;;;6.60;;
69213;SDS011;56325;47.030;18.518;2022-11-20T22:06:24;8.13;;;5.90;;
69213;SDS011;56325;47.030;18.518;2022-11-20T22:09:04;10.82;;;7.82;;
69213;SDS011;56325;47.030;18.518;2022-11-20T22:11:39;30.00;;;10.90;;
69213;SDS011;56325;47.030;18.518;2022-11-20T22:14:16;35.40;;;11.33;;
69213;SDS011;56325;47.030;18.518;2022-11-20T22:16:59;12.63;;;9.30;;
69213;SDS011;56325;47.030;18.518;2022-11-20T22:19:33;10.90;;;7.17;;
69213;SDS011;56325;47.030;18.518;2022-11-20T22:22:08;7.93;;;5.17;;
69213;SDS011;56325;47.030;18.518;2022-11-20T22:24:42;8.40;;;5.60;;
69213;SDS011;56325;47.030;18.518;2022-11-20T22:27:17;6.47;;;5.87;;
69213;SDS011;56325;47.030;18.518;2022-11-20T22:29:52;5.07;;;4.53;;
69213;SDS011;56325;47.030;18.518;2022-11-20T22:32:26;14.70;;;5.17;;
69213;SDS011;56325;47.030;18.518;2022-11-20T22:35:10;5.27;;;4.73;;
69213;SDS011;56325;47.030;18.518;2022-11-20T22:37:47;22.73;;;6.27;;
69213;SDS011;56325;47.030;18.518;2022-11-20T22:43:46;7.00;;;6.30;;
69213;SDS011;56325;47.030;18.518;2022-11-20T22:46:21;8.07;;;5.80;;
69213;SDS011;56325;47.030;18.518;2022-11-20T22:48:57;7.53;;;6.20;;
69213;SDS011;56325;47.030;18.518;2022-11-20T22:54:29;14.90;;;5.30;;
69213;SDS011;56325;47.030;18.518;2022-11-20T22:57:04;12.53;;;6.17;;
69213;SDS011;56325;47.030;18.518;2022-11-20T22:59:39;5.43;;;5.03;;
69213;SDS011;56325;47.030;18.518;2022-11-20T23:02:14;6.03;;;5.30;;
69213;SDS011;56325;47.030;18.518;2022-11-20T23:04:48;4.50;;;4.20;;
69213;SDS011;56325;47.030;18.518;2022-11-20T23:07:22;6.77;;;4.83;;
69213;SDS011;56325;47.030;18.518;2022-11-20T23:09:57;5.27;;;4.77;;
69213;SDS011;56325;47.030;18.518;2022-11-20T23:12:57;12.40;;;9.50;;
69213;SDS011;56325;47.030;18.518;2022-11-20T23:15:38;16.40;;;9.63;;
69213;SDS011;56325;47.030;18.518;2022-11-20T23:18:13;16.37;;;9.67;;
69213;SDS011;56325;47.030;18.518;2022-11-20T23:20:47;11.97;;;6.37;;
69213;SDS011;56325;47.030;18.518;2022-11-20T23:23:21;6.77;;;6.17;;
69213;SDS011;56325;47.030;18.518;2022-11-20T23:48:55;5.87;;;5.43;;
69213;SDS011;56325;47.030;18.518;2022-11-20T23:51:35;7.13;;;5.17;;
69213;SDS011;56325;47.030;18.518;2022-11-20T23:54:17;5.93;;;5.30;;
69213;SDS011;56325;47.030;18.518;2022-11-20T23:56:51;4.80;;;4.40;;
69213;SDS011;56325;47.030;18.518;2022-11-20T23:59:25;11.67;;;4.23;;
